Braham, Minnesota
Current Conditions -  °F | °C
As of 12:15 AM on Friday 19 Dec 2014 (Local Time) from KROS Reporting Station
Overcast Overcast  
Wind Chill: 22°   Ceiling: 1200
Heat Index: 22°   Visibility: 10mi
Dew Point: 19°   Wind: 3mph
Humidity: 87%   Direction: 200°SSW
Pressure: 30.27"   Gusts: NA
Location:  45.72°N, 93.17°W
Report Text: KROS 190615Z AUTO 20003KT 10SM OVC012 M06/M07 A3027 RMK AO2 T10561075
Loading
Personal Weather Stations






























Interactive Weather Map New forecast layout! Learn more

10-Day Weather Forecast

Advertisements
Track Severe Weather on mobile